Terminal Aerodrome Forecast
Issued by NWS

Home | Current Version | Previous Version | Text Only | Print | Product List | Glossary On
Versions: 1 2 3 4 5 6 7 8 9 10 11 12 13
000
FTPA31 PHFO 201720
TAFHJH
TAF
PHJH 201720Z 2018/2118 02020G30KT P6SM SCT030 BKN040
     FM202000 06024G34KT P6SM FEW030 SCT040
      AMD NOT SKED AFT 210400=

USA.gov is the U.S. government's official web portal to all federal, state and local government web resources and services.